Time;durP1;ratioP1;P1;durP2;ratioP2;P2;SDS_P1;SDS_P2;PMS_P1;PMS_P2;Temp;Humidity;BMP_temperature;BMP_pressure;BME280_temperature;BME280_humidity;BME280_pressure;Samples;Min_cycle;Max_cycle;Signal;HPM_P1;HPM_P2
2022/02/20 00:02:11;;;;;;;2.20;1.50;;;10.30;62.70;;;;;;6244686;23;20015;-85
2022/02/20 00:04:40;;;;;;;1.98;1.27;;;10.30;62.70;;;;;;6243033;23;20016;-86
2022/02/20 00:07:06;;;;;;;3.42;1.58;;;10.20;62.70;;;;;;6242341;22;20102;-86
2022/02/20 00:09:32;;;;;;;3.65;1.55;;;10.30;62.90;;;;;;6217834;23;20047;-87
2022/02/20 00:11:58;;;;;;;2.55;1.45;;;10.30;62.90;;;;;;6244575;22;20020;-87
2022/02/20 00:14:24;;;;;;;2.35;1.45;;;10.20;62.90;;;;;;6243489;23;20340;-87
2022/02/20 00:16:52;;;;;;;2.85;2.10;;;10.30;62.90;;;;;;6268070;22;20016;-87
2022/02/20 00:19:18;;;;;;;3.35;1.52;;;10.20;62.90;;;;;;6242199;22;20020;-87
2022/02/20 00:21:44;;;;;;;2.55;1.48;;;10.20;62.90;;;;;;6217336;23;20016;-88
2022/02/20 00:24:10;;;;;;;2.17;1.48;;;10.20;62.90;;;;;;6267616;22;20020;-87
2022/02/20 00:26:36;;;;;;;2.67;1.38;;;10.30;63.00;;;;;;6242012;22;20016;-88
2022/02/20 00:29:02;;;;;;;2.28;1.70;;;10.20;62.90;;;;;;6242851;23;20008;-87
2022/02/20 00:31:28;;;;;;;1.35;1.23;;;10.20;62.90;;;;;;6241830;22;20016;-86
2022/02/20 00:33:55;;;;;;;2.83;1.67;;;10.20;63.00;;;;;;6267349;22;20428;-87
2022/02/20 00:36:21;;;;;;;1.90;1.13;;;10.20;62.90;;;;;;6243498;22;20048;-88
2022/02/20 00:38:47;;;;;;;3.30;1.45;;;10.20;63.00;;;;;;6242123;22;20032;-88
2022/02/20 00:41:13;;;;;;;1.83;1.17;;;10.20;63.00;;;;;;6242682;23;20015;-88
2022/02/20 00:43:39;;;;;;;4.30;1.50;;;10.20;62.90;;;;;;6216573;23;20016;-88
2022/02/20 00:46:05;;;;;;;2.50;1.40;;;10.20;63.00;;;;;;6242326;23;20031;-90
2022/02/20 00:48:31;;;;;;;1.88;1.15;;;10.20;63.00;;;;;;6241646;23;20053;-89
2022/02/20 00:50:57;;;;;;;1.67;1.33;;;10.20;63.00;;;;;;6242190;23;20031;-89
2022/02/20 00:53:25;;;;;;;3.05;1.42;;;10.20;63.10;;;;;;6217097;23;20008;-88
2022/02/20 00:55:51;;;;;;;2.88;1.40;;;10.20;63.10;;;;;;6216573;23;20026;-87
2022/02/20 00:58:17;;;;;;;3.85;1.63;;;10.20;63.20;;;;;;6243085;22;20102;-85
2022/02/20 01:00:43;;;;;;;1.90;1.45;;;10.20;63.10;;;;;;6205028;23;20019;-87
2022/02/20 01:03:09;;;;;;;2.70;1.50;;;10.20;63.10;;;;;;6216022;23;20108;-86
2022/02/20 01:05:36;;;;;;;1.25;1.00;;;10.10;63.10;;;;;;6241411;22;20015;-87
2022/02/20 01:08:02;;;;;;;2.72;1.33;;;10.20;63.20;;;;;;6192074;23;20004;-90
2022/02/20 01:10:28;;;;;;;2.38;1.50;;;10.10;63.10;;;;;;6242320;22;20020;-87
2022/02/20 01:12:56;;;;;;;1.40;1.10;;;10.10;63.20;;;;;;6274266;22;20325;-89
2022/02/20 01:15:22;;;;;;;2.75;1.42;;;10.10;63.20;;;;;;6274492;22;20065;-89
2022/02/20 01:17:48;;;;;;;2.03;1.15;;;10.10;63.20;;;;;;6274448;22;20073;-91
2022/02/20 01:20:14;;;;;;;1.98;1.20;;;10.10;63.30;;;;;;6274182;22;20388;-89
2022/02/20 01:22:40;;;;;;;1.88;1.30;;;10.10;63.30;;;;;;6222113;22;20020;-93
2022/02/20 01:25:06;;;;;;;1.15;1.00;;;10.10;63.30;;;;;;6248093;22;20040;-93
2022/02/20 01:27:33;;;;;;;1.98;0.98;;;10.10;63.40;;;;;;6247088;22;20032;-88
2022/02/20 01:29:59;;;;;;;2.53;1.02;;;10.10;63.30;;;;;;6274423;22;20097;-89
2022/02/20 01:32:25;;;;;;;1.45;0.90;;;10.10;63.30;;;;;;6274886;22;20012;-88
2022/02/20 01:34:51;;;;;;;2.53;1.05;;;10.10;63.30;;;;;;6247500;22;20024;-93
2022/02/20 01:37:17;;;;;;;1.35;0.85;;;10.10;63.30;;;;;;6247825;22;20062;-92
2022/02/20 01:39:43;;;;;;;1.00;1.00;;;10.10;63.30;;;;;;6273873;22;20455;-88
2022/02/20 01:42:15;;;;;;;1.98;1.02;;;10.10;63.40;;;;;;6247146;22;20061;-89
2022/02/20 01:44:41;;;;;;;1.73;1.10;;;10.10;63.40;;;;;;6252376;22;20016;-88
2022/02/20 01:47:09;;;;;;;1.00;0.90;;;10.10;63.40;;;;;;6246968;22;20008;-89
2022/02/20 01:49:40;;;;;;;0.88;0.70;;;10.10;63.30;;;;;;6245619;22;20041;-89
2022/02/20 01:52:07;;;;;;;0.85;0.80;;;10.10;63.30;;;;;;6245549;22;20016;-89
2022/02/20 01:54:33;;;;;;;0.85;0.80;;;10.10;63.40;;;;;;6245292;22;20015;-90
2022/02/20 01:56:59;;;;;;;1.95;0.85;;;10.10;63.40;;;;;;6196133;22;20011;-90
2022/02/20 01:59:48;;;;;;;0.73;0.55;;;10.10;63.40;;;;;;6220921;22;20008;-91
2022/02/20 02:02:40;;;;;;;1.00;0.75;;;10.10;63.40;;;;;;6246557;22;20033;-90
2022/02/20 02:05:30;;;;;;;1.48;0.70;;;10.10;63.40;;;;;;6246942;22;20004;-87
2022/02/20 02:07:56;;;;;;;1.50;0.60;;;10.00;63.30;;;;;;6214610;22;20004;-90
2022/02/20 02:10:43;;;;;;;0.63;0.50;;;10.00;63.40;;;;;;6225737;22;20073;-90
2022/02/20 02:13:34;;;;;;;0.82;0.82;;;10.00;64.00;;;;;;6249729;22;20011;-90
2022/02/20 02:16:21;;;;;;;1.38;0.80;;;10.10;63.40;;;;;;6220582;22;20072;-90
2022/02/20 02:19:16;;;;;;;1.65;0.50;;;10.00;63.30;;;;;;6119684;23;20022;-90
2022/02/20 02:22:08;;;;;;;0.68;0.68;;;10.10;63.40;;;;;;6033152;23;20107;-91
2022/02/20 02:24:54;;;;;;;0.47;0.47;;;10.00;63.40;;;;;;6033203;23;20031;-88
2022/02/20 02:27:28;;;;;;;;;;;10.00;63.40;;;;;;6033931;23;20066;-90
2022/02/20 02:30:14;;;;;;;0.88;0.68;;;10.00;63.40;;;;;;6034724;23;19942;-90
2022/02/20 02:32:40;;;;;;;0.57;0.55;;;10.00;63.40;;;;;;6011329;23;20019;-89
2022/02/20 02:35:10;;;;;;;0.85;0.57;;;10.00;63.40;;;;;;6035290;23;20378;-89
2022/02/20 02:37:36;;;;;;;1.08;0.63;;;10.00;63.40;;;;;;6011483;23;20031;-90
2022/02/20 02:40:03;;;;;;;0.82;0.60;;;10.00;63.40;;;;;;6011818;23;20023;-93
2022/02/20 02:42:29;;;;;;;0.50;0.50;;;10.00;63.40;;;;;;6012104;23;20079;-90
2022/02/20 02:44:55;;;;;;;0.60;0.40;;;10.00;63.40;;;;;;6012417;23;20023;-92
2022/02/20 02:47:21;;;;;;;1.00;0.55;;;9.90;63.30;;;;;;6013445;23;20011;-92
2022/02/20 02:49:47;;;;;;;0.93;0.70;;;10.00;63.40;;;;;;6036696;23;20027;-93
2022/02/20 02:52:13;;;;;;;0.65;0.65;;;9.90;63.30;;;;;;6036492;23;20019;-91
2022/02/20 02:54:39;;;;;;;0.95;0.47;;;10.00;63.40;;;;;;6023930;23;20085;-91
2022/02/20 02:57:05;;;;;;;1.58;1.00;;;9.90;63.30;;;;;;6182327;23;20045;-89
2022/02/20 02:59:33;;;;;;;0.40;0.40;;;9.90;63.40;;;;;;6251939;22;20094;-94
2022/02/20 03:02:03;;;;;;;0.63;0.50;;;9.90;63.30;;;;;;6249710;22;20036;-93
2022/02/20 03:04:30;;;;;;;0.90;0.60;;;9.90;63.50;;;;;;6249223;22;20099;-89
2022/02/20 03:06:56;;;;;;;1.52;0.65;;;9.90;63.50;;;;;;6249318;22;20346;-93
2022/02/20 03:09:22;;;;;;;2.47;0.60;;;9.90;63.50;;;;;;6248918;22;20046;-92
2022/02/20 03:11:48;;;;;;;0.88;0.65;;;9.90;63.50;;;;;;6275736;22;20481;-87
2022/02/20 03:14:21;;;;;;;0.60;0.52;;;9.90;63.50;;;;;;6249345;22;20018;-91
2022/02/20 03:16:47;;;;;;;0.77;0.70;;;9.90;63.40;;;;;;6247825;22;20028;-92
2022/02/20 03:19:13;;;;;;;2.22;0.77;;;9.90;63.60;;;;;;6247933;22;20066;-91
2022/02/20 03:21:39;;;;;;;1.02;0.70;;;9.90;63.60;;;;;;6223079;22;20065;-92
2022/02/20 03:24:07;;;;;;;0.98;0.60;;;9.90;63.60;;;;;;6198544;22;20403;-92
2022/02/20 03:26:34;;;;;;;0.82;0.60;;;9.90;63.60;;;;;;6222735;22;20065;-93
2022/02/20 03:29:02;;;;;;;0.85;0.57;;;9.90;63.60;;;;;;6223917;22;20007;-92
2022/02/20 03:31:30;;;;;;;0.82;0.63;;;9.90;63.70;;;;;;6248551;22;20027;-88
2022/02/20 03:33:56;;;;;;;1.58;0.52;;;9.90;63.70;;;;;;6248247;22;20024;-90
2022/02/20 03:36:23;;;;;;;0.63;0.40;;;9.90;63.70;;;;;;6248630;22;20019;-91
2022/02/20 03:38:50;;;;;;;1.55;0.80;;;9.90;63.60;;;;;;6197852;22;20506;-92
2022/02/20 03:41:22;;;;;;;0.77;0.60;;;9.90;63.60;;;;;;6248809;22;20474;-89
2022/02/20 03:43:48;;;;;;;0.77;0.60;;;9.90;63.60;;;;;;6251448;22;20015;-89
2022/02/20 03:46:14;;;;;;;1.58;0.65;;;9.90;63.60;;;;;;6248748;22;20059;-93
2022/02/20 03:48:52;;;;;;;0.60;0.60;;;9.90;63.60;;;;;;6223600;22;20097;-91
2022/02/20 03:51:37;;;;;;;0.40;0.40;;;9.90;63.70;;;;;;6275403;22;20019;-92
2022/02/20 03:54:03;;;;;;;0.80;0.80;;;9.90;63.60;;;;;;6248671;22;20371;-93
2022/02/20 03:56:29;;;;;;;0.63;0.60;;;9.90;63.60;;;;;;6248753;22;20018;-87
2022/02/20 03:58:56;;;;;;;0.73;0.65;;;9.90;63.50;;;;;;6250050;22;20008;-93
2022/02/20 04:01:24;;;;;;;0.70;0.68;;;9.90;63.60;;;;;;6224226;22;20020;-94
2022/02/20 04:03:51;;;;;;;0.82;0.50;;;9.90;63.70;;;;;;6249091;22;20019;-90
2022/02/20 04:06:17;;;;;;;0.40;0.40;;;9.90;63.80;;;;;;6249120;22;20490;-91
2022/02/20 04:08:48;;;;;;;1.63;0.60;;;9.90;63.70;;;;;;6223591;22;20412;-95
2022/02/20 04:11:15;;;;;;;0.60;0.60;;;9.90;63.60;;;;;;6249724;22;20008;-88
2022/02/20 04:14:07;;;;;;;0.57;0.57;;;9.90;63.60;;;;;;6271553;22;20028;-93
2022/02/20 04:16:56;;;;;;;0.55;0.55;;;9.90;63.60;;;;;;6239233;22;20024;-93
2022/02/20 04:19:22;;;;;;;0.50;0.50;;;9.90;63.70;;;;;;6250991;22;20061;-92
2022/02/20 04:21:48;;;;;;;0.52;0.52;;;9.90;63.60;;;;;;6228292;22;20027;-92
2022/02/20 04:24:22;;;;;;;1.13;0.68;;;9.90;63.60;;;;;;6254403;22;20020;-91
2022/02/20 04:26:48;;;;;;;2.03;0.57;;;9.90;63.50;;;;;;6252653;22;20103;-92
2022/02/20 04:29:22;;;;;;;0.60;0.43;;;9.90;63.50;;;;;;6261583;22;19992;-89
2022/02/20 04:31:51;;;;;;;0.70;0.70;;;9.90;63.60;;;;;;6263376;22;20066;-88
2022/02/20 04:34:18;;;;;;;0.55;0.40;;;9.90;63.50;;;;;;6206805;22;20049;-92
2022/02/20 04:36:44;;;;;;;0.95;0.57;;;9.90;63.60;;;;;;6257632;22;20020;-91
2022/02/20 04:39:11;;;;;;;1.17;0.43;;;9.90;63.60;;;;;;6262443;22;20004;-83
2022/02/20 04:41:42;;;;;;;0.60;0.50;;;9.90;63.60;;;;;;6262765;22;20008;-92
2022/02/20 04:44:16;;;;;;;0.57;0.47;;;9.90;63.60;;;;;;6252968;22;20108;-92
2022/02/20 04:46:42;;;;;;;0.60;0.60;;;9.90;63.50;;;;;;6252199;22;20106;-89
2022/02/20 04:49:10;;;;;;;2.10;0.85;;;9.90;63.70;;;;;;6252382;22;20078;-88
2022/02/20 04:52:14;;;;;;;0.70;0.70;;;9.90;63.80;;;;;;6262495;22;20045;-92
2022/02/20 04:55:10;;;;;;;0.93;0.75;;;9.90;63.70;;;;;;6256784;22;20024;-87
2022/02/20 04:57:39;;;;;;;0.85;0.60;;;9.90;63.80;;;;;;6224764;22;20035;-89
2022/02/20 05:00:15;;;;;;;0.90;0.80;;;10.00;63.90;;;;;;6223427;22;20050;-89
2022/02/20 05:03:09;;;;;;;0.93;0.73;;;9.90;63.90;;;;;;6132138;23;20037;-87
2022/02/20 05:06:10;;;;;;;1.52;0.90;;;9.90;63.90;;;;;;6120059;23;20064;-91
2022/02/20 05:08:48;;;;;;;0.70;0.70;;;9.90;63.80;;;;;;6103255;23;20374;-90
2022/02/20 05:11:19;;;;;;;1.02;0.60;;;9.90;63.80;;;;;;6130886;23;20033;-88
2022/02/20 05:13:54;;;;;;;0.90;0.70;;;9.90;63.70;;;;;;6104800;23;20017;-88
2022/02/20 05:16:22;;;;;;;0.70;0.70;;;9.90;63.70;;;;;;6128337;23;20168;-89
2022/02/20 05:18:48;;;;;;;0.80;0.60;;;10.00;63.80;;;;;;6151832;23;20025;-88
2022/02/20 05:21:16;;;;;;;0.60;0.60;;;9.90;63.70;;;;;;6136239;23;20113;-90
2022/02/20 05:23:44;;;;;;;1.42;0.50;;;9.90;63.50;;;;;;6120888;23;20049;-88
2022/02/20 05:26:11;;;;;;;0.82;0.57;;;9.90;63.50;;;;;;6150152;23;20029;-90
2022/02/20 05:28:37;;;;;;;0.75;0.70;;;9.90;63.50;;;;;;6123362;23;20034;-87
2022/02/20 05:31:09;;;;;;;0.70;0.63;;;9.90;63.50;;;;;;6091691;23;20049;-88
2022/02/20 05:33:35;;;;;;;0.50;0.50;;;9.90;63.40;;;;;;6123087;23;20021;-88
2022/02/20 05:36:02;;;;;;;0.95;0.60;;;9.90;63.40;;;;;;6153660;23;20013;-91
2022/02/20 05:38:40;;;;;;;1.27;0.60;;;9.90;63.40;;;;;;6130608;23;20004;-87
2022/02/20 05:41:07;;;;;;;1.67;0.82;;;9.90;63.40;;;;;;6239682;23;20023;-90
2022/02/20 05:43:34;;;;;;;0.70;0.70;;;9.90;63.40;;;;;;6257130;23;20047;-87
2022/02/20 05:46:00;;;;;;;0.60;0.60;;;9.90;63.40;;;;;;6223407;23;20024;-91
2022/02/20 05:48:32;;;;;;;0.60;0.60;;;9.90;63.40;;;;;;6246031;23;20076;-89
2022/02/20 05:51:15;;;;;;;0.70;0.70;;;9.90;63.40;;;;;;6269704;22;20512;-90
2022/02/20 05:53:47;;;;;;;0.55;0.55;;;9.90;63.40;;;;;;6243365;22;20016;-89
2022/02/20 05:56:17;;;;;;;0.85;0.60;;;9.90;63.50;;;;;;6244035;22;20050;-89
2022/02/20 05:59:15;;;;;;;0.65;0.60;;;9.90;63.50;;;;;;6230157;22;20020;-88
2022/02/20 06:01:45;;;;;;;0.75;0.70;;;9.90;63.50;;;;;;6191738;23;20026;-90
2022/02/20 06:04:23;;;;;;;0.73;0.70;;;9.90;63.50;;;;;;6243591;22;20020;-91
2022/02/20 06:06:52;;;;;;;0.98;0.77;;;9.90;63.50;;;;;;6243904;22;20103;-89
2022/02/20 06:09:42;;;;;;;1.48;0.75;;;9.90;63.50;;;;;;6242144;23;20099;-89
2022/02/20 06:12:16;;;;;;;0.75;0.70;;;9.90;63.50;;;;;;6212126;23;20072;-91
2022/02/20 06:15:09;;;;;;;0.77;0.70;;;9.80;63.50;;;;;;6244394;23;20016;-89
2022/02/20 06:18:00;;;;;;;1.73;0.73;;;9.80;63.50;;;;;;6235110;23;20016;-92
2022/02/20 06:20:58;;;;;;;1.80;0.80;;;9.90;63.50;;;;;;6215850;23;20027;-90
2022/02/20 06:23:55;;;;;;;0.80;0.80;;;9.90;63.50;;;;;;6139200;23;20028;-88
2022/02/20 06:26:51;;;;;;;0.95;0.90;;;9.90;63.50;;;;;;6132775;23;20028;-89
2022/02/20 06:29:17;;;;;;;0.75;0.75;;;9.90;63.50;;;;;;6106739;23;20032;-88
2022/02/20 06:31:43;;;;;;;0.90;0.85;;;9.90;63.50;;;;;;6167058;23;20026;-89
2022/02/20 06:34:11;;;;;;;1.00;0.60;;;9.90;63.50;;;;;;6138792;23;20025;-87
2022/02/20 06:36:43;;;;;;;0.90;0.55;;;9.90;64.10;;;;;;6166317;23;20028;-90
2022/02/20 06:39:10;;;;;;;1.85;0.68;;;9.90;63.50;;;;;;6156981;23;20028;-90
2022/02/20 06:41:37;;;;;;;1.90;0.60;;;9.90;63.60;;;;;;6126386;23;20520;-89
2022/02/20 06:44:05;;;;;;;0.60;0.57;;;9.90;63.60;;;;;;6127159;23;20005;-90
2022/02/20 06:46:50;;;;;;;;;;;9.90;63.60;;;;;;6153233;23;20613;-90
2022/02/20 06:49:36;;;;;;;0.73;0.43;;;9.90;63.60;;;;;;6130486;23;20099;-93
2022/02/20 06:52:21;;;;;;;0.88;0.50;;;9.90;63.60;;;;;;6124213;23;20018;-89
2022/02/20 06:54:58;;;;;;;0.57;0.47;;;9.90;63.60;;;;;;6097584;23;20086;-88
2022/02/20 06:57:37;;;;;;;0.80;0.60;;;9.90;63.70;;;;;;6123219;23;20595;-88
2022/02/20 07:00:06;;;;;;;1.10;0.50;;;9.90;63.80;;;;;;6116090;23;20020;-89
2022/02/20 07:02:33;;;;;;;1.52;0.70;;;9.90;63.90;;;;;;6146841;23;20010;-92
2022/02/20 07:05:00;;;;;;;2.45;0.73;;;9.90;64.00;;;;;;6098659;23;20021;-88
2022/02/20 07:07:26;;;;;;;0.75;0.75;;;9.90;64.00;;;;;;6097863;23;20025;-89
2022/02/20 07:09:52;;;;;;;0.80;0.70;;;9.90;64.00;;;;;;6138597;23;20033;-90
2022/02/20 07:12:18;;;;;;;1.27;1.00;;;10.00;64.20;;;;;;6150333;23;20100;-88
2022/02/20 07:14:50;;;;;;;0.93;0.63;;;10.00;64.20;;;;;;6126405;23;20044;-82
2022/02/20 07:17:17;;;;;;;2.45;0.73;;;10.00;64.20;;;;;;6151277;23;20040;-84
2022/02/20 07:19:43;;;;;;;0.80;0.60;;;10.00;65.60;;;;;;6150861;23;20018;-86
2022/02/20 07:22:09;;;;;;;1.50;1.00;;;10.10;66.70;;;;;;6151892;23;20024;-86
2022/02/20 07:24:37;;;;;;;1.55;0.70;;;10.10;67.30;;;;;;6151834;23;20018;-87
2022/02/20 07:27:05;;;;;;;1.02;0.70;;;10.10;67.60;;;;;;6194126;22;20150;-88
2022/02/20 07:29:31;;;;;;;0.90;0.73;;;10.20;68.00;;;;;;6222383;22;20012;-88
2022/02/20 07:31:59;;;;;;;1.90;0.75;;;10.20;68.50;;;;;;6222957;22;20062;-86
2022/02/20 07:34:25;;;;;;;2.33;0.82;;;10.30;68.40;;;;;;6248122;22;20337;-87
2022/02/20 07:36:52;;;;;;;1.00;0.70;;;10.30;68.40;;;;;;6276650;22;20033;-83
2022/02/20 07:39:18;;;;;;;0.95;0.68;;;10.30;68.20;;;;;;6248502;22;20023;-81
2022/02/20 07:41:45;;;;;;;4.75;0.90;;;10.40;68.10;;;;;;6248178;22;20456;-81
2022/02/20 07:44:11;;;;;;;2.70;0.90;;;10.40;68.30;;;;;;6249133;22;20042;-80
2022/02/20 07:46:37;;;;;;;2.70;0.80;;;10.40;68.50;;;;;;6223167;22;20066;-80
2022/02/20 07:49:06;;;;;;;1.60;1.10;;;10.50;68.50;;;;;;6268684;22;20016;-81
2022/02/20 07:51:33;;;;;;;2.45;1.08;;;10.50;68.70;;;;;;6242711;22;20026;-82
2022/02/20 07:54:05;;;;;;;3.67;1.30;;;10.50;68.90;;;;;;6244434;22;20088;-79
2022/02/20 07:56:37;;;;;;;2.70;1.15;;;10.60;69.30;;;;;;6242236;22;20019;-80
2022/02/20 07:59:03;;;;;;;1.98;1.13;;;10.60;69.50;;;;;;6216551;23;20012;-80
2022/02/20 08:01:32;;;;;;;2.45;1.00;;;10.70;69.50;;;;;;6216037;23;20111;-80
2022/02/20 08:04:32;;;;;;;7.82;1.85;;;10.70;69.90;;;;;;6215466;23;20395;-80
2022/02/20 08:07:03;;;;;;;3.30;1.30;;;10.70;70.20;;;;;;6241361;23;20043;-80
2022/02/20 08:09:30;;;;;;;2.28;0.93;;;10.80;70.20;;;;;;6241305;22;20126;-80
2022/02/20 08:11:56;;;;;;;1.63;1.20;;;10.80;70.10;;;;;;6241091;23;20057;-80
2022/02/20 08:14:24;;;;;;;1.55;1.10;;;10.90;70.30;;;;;;6216910;23;20313;-81
2022/02/20 08:16:50;;;;;;;4.95;1.25;;;10.90;71.00;;;;;;6241181;22;20044;-80
2022/02/20 08:19:22;;;;;;;2.30;1.00;;;11.00;71.20;;;;;;6242092;23;20355;-83
2022/02/20 08:21:50;;;;;;;1.33;1.05;;;11.00;71.30;;;;;;6216333;23;20090;-82
2022/02/20 08:24:17;;;;;;;2.88;0.80;;;11.00;70.90;;;;;;6216230;23;20376;-83
2022/02/20 08:26:45;;;;;;;3.35;1.15;;;11.00;70.80;;;;;;6241487;22;20015;-83
2022/02/20 08:29:13;;;;;;;4.30;1.40;;;11.00;71.00;;;;;;6242198;23;20054;-81
2022/02/20 08:31:39;;;;;;;1.60;1.20;;;11.10;71.00;;;;;;6241685;23;20020;-81
2022/02/20 08:34:06;;;;;;;2.58;1.05;;;11.10;71.10;;;;;;6243058;22;20081;-82
2022/02/20 08:36:32;;;;;;;3.67;1.00;;;11.10;71.40;;;;;;6241111;23;20031;-81
2022/02/20 08:38:59;;;;;;;2.28;1.02;;;11.10;71.30;;;;;;6242570;22;20022;-81
2022/02/20 08:41:25;;;;;;;4.82;1.00;;;11.10;71.30;;;;;;6243348;23;20015;-80
2022/02/20 08:43:51;;;;;;;4.72;1.08;;;11.20;71.40;;;;;;6241430;23;20030;-85
2022/02/20 08:46:19;;;;;;;4.03;0.80;;;11.20;71.20;;;;;;6241567;22;20024;-84
2022/02/20 08:48:46;;;;;;;2.03;0.90;;;11.20;70.80;;;;;;6243495;22;20027;-85
2022/02/20 08:51:12;;;;;;;1.65;0.93;;;11.20;70.60;;;;;;6241312;22;20070;-86
2022/02/20 08:53:39;;;;;;;1.80;0.90;;;11.20;70.70;;;;;;6241554;22;20012;-86
2022/02/20 08:56:12;;;;;;;2.08;1.05;;;11.30;70.60;;;;;;6242164;23;20012;-84
2022/02/20 08:58:38;;;;;;;5.57;0.98;;;11.20;70.60;;;;;;6241928;22;20019;-83
2022/02/20 09:01:05;;;;;;;0.57;0.57;;;11.30;70.70;;;;;;6241688;22;20371;-86
2022/02/20 09:03:32;;;;;;;1.02;0.60;;;11.30;70.70;;;;;;6241925;22;20031;-86
2022/02/20 09:05:58;;;;;;;1.58;0.80;;;11.40;70.60;;;;;;6241336;22;20406;-83
2022/02/20 09:08:26;;;;;;;3.97;0.77;;;11.40;70.50;;;;;;6190558;23;20007;-81
2022/02/20 09:10:52;;;;;;;3.65;0.80;;;11.40;70.20;;;;;;6240910;23;20019;-81
2022/02/20 09:13:19;;;;;;;3.25;0.65;;;11.40;69.70;;;;;;6241122;22;20094;-82
2022/02/20 09:15:46;;;;;;;2.92;0.90;;;11.40;69.40;;;;;;6214204;23;20016;-82
2022/02/20 09:18:13;;;;;;;2.63;0.90;;;11.40;68.50;;;;;;6239614;22;20012;-82
2022/02/20 09:20:39;;;;;;;1.90;0.70;;;11.30;68.30;;;;;;6213732;22;20308;-83
2022/02/20 09:23:06;;;;;;;1.75;0.90;;;11.30;67.50;;;;;;6241371;22;20399;-86
2022/02/20 09:25:32;;;;;;;2.83;0.60;;;11.30;67.50;;;;;;6239146;23;20494;-83
2022/02/20 09:27:58;;;;;;;3.30;0.85;;;11.40;67.60;;;;;;6238936;23;20025;-83
2022/02/20 09:30:24;;;;;;;4.72;0.77;;;11.30;68.20;;;;;;6218736;22;20624;-85
2022/02/20 09:32:51;;;;;;;2.40;0.73;;;11.30;68.30;;;;;;6239444;22;20455;-87
2022/02/20 09:35:17;;;;;;;1.60;0.98;;;11.40;68.40;;;;;;6191760;23;20356;-88
2022/02/20 09:37:43;;;;;;;2.17;1.60;;;11.40;68.40;;;;;;6187472;23;20016;-87
2022/02/20 09:40:11;;;;;;;4.43;1.02;;;11.40;68.60;;;;;;6189251;23;20024;-86
2022/02/20 09:42:37;;;;;;;1.50;1.00;;;11.40;68.50;;;;;;6214545;23;20413;-86
2022/02/20 09:45:04;;;;;;;5.78;1.17;;;11.50;71.30;;;;;;6190366;23;20012;-87
2022/02/20 09:47:31;;;;;;;4.60;1.17;;;11.50;71.50;;;;;;6188859;23;20008;-86
2022/02/20 09:50:00;;;;;;;3.35;0.90;;;11.60;71.40;;;;;;6241857;23;20081;-87
2022/02/20 09:52:28;;;;;;;3.38;1.00;;;11.60;71.30;;;;;;6241266;23;20016;-87
2022/02/20 09:54:54;;;;;;;4.72;1.02;;;11.70;71.30;;;;;;6189247;23;20020;-85
2022/02/20 09:57:20;;;;;;;5.22;0.90;;;11.70;70.50;;;;;;6165105;23;20023;-89
2022/02/20 09:59:47;;;;;;;2.97;1.30;;;11.70;70.10;;;;;;6163698;23;20012;-86
2022/02/20 10:02:16;;;;;;;5.43;1.30;;;11.70;70.00;;;;;;6189786;23;20004;-86
2022/02/20 10:04:49;;;;;;;3.47;1.80;;;11.70;70.10;;;;;;6241147;22;20022;-87
2022/02/20 10:07:33;;;;;;;4.95;1.52;;;11.80;70.60;;;;;;6241004;22;20028;-85
2022/02/20 10:10:04;;;;;;;15.63;3.13;;;11.80;70.90;;;;;;6241156;22;20117;-85
2022/02/20 10:12:31;;;;;;;17.55;3.47;;;11.80;71.00;;;;;;6214275;23;20026;-84
2022/02/20 10:14:57;;;;;;;18.52;4.72;;;11.80;71.30;;;;;;6189219;23;20039;-86
2022/02/20 10:17:26;;;;;;;12.45;3.45;;;11.90;71.50;;;;;;6214743;23;20090;-88
2022/02/20 10:20:21;;;;;;;18.60;4.13;;;11.90;71.60;;;;;;6244615;22;20482;-85
2022/02/20 10:23:14;;;;;;;21.15;4.63;;;11.90;71.80;;;;;;6094200;23;20046;-84
2022/02/20 10:26:13;;;;;;;15.60;4.38;;;12.00;72.00;;;;;;6118688;23;20018;-85
2022/02/20 10:28:59;;;;;;;12.30;3.67;;;12.00;72.10;;;;;;6097933;23;20018;-86
2022/02/20 10:31:46;;;;;;;17.60;4.25;;;12.00;71.80;;;;;;6118588;23;20035;-88
2022/02/20 10:34:16;;;;;;;;;;;12.00;71.80;;;;;;6119434;23;20516;-87
2022/02/20 10:36:52;;;;;;;18.80;5.47;;;12.10;71.60;;;;;;6094367;23;19912;-86
2022/02/20 10:39:26;;;;;;;21.63;6.20;;;12.10;71.80;;;;;;6095491;23;20093;-87
2022/02/20 10:41:56;;;;;;;23.50;7.70;;;12.10;72.30;;;;;;6119696;23;20026;-89
2022/02/20 10:44:23;;;;;;;18.20;6.43;;;12.10;72.70;;;;;;6120354;23;20097;-87
2022/02/20 10:47:08;;;;;;;16.48;5.28;;;12.20;72.60;;;;;;6094369;23;20032;-80
2022/02/20 10:49:34;;;;;;;19.17;6.88;;;12.20;72.90;;;;;;6121143;23;20037;-89
2022/02/20 10:52:01;;;;;;;19.58;6.25;;;12.30;77.40;;;;;;6122569;23;20018;-92
2022/02/20 10:54:27;;;;;;;12.35;4.97;;;12.30;76.40;;;;;;6120833;23;20041;-83
2022/02/20 10:56:54;;;;;;;21.10;6.18;;;12.40;75.00;;;;;;6120166;23;20049;-81
2022/02/20 10:59:21;;;;;;;13.98;5.05;;;12.40;77.50;;;;;;6114713;23;20039;-81
2022/02/20 11:01:51;;;;;;;17.25;5.60;;;12.60;80.10;;;;;;6243522;22;20024;-85
2022/02/20 11:04:21;;;;;;;17.60;5.70;;;12.70;81.40;;;;;;6214650;23;20019;-83
2022/02/20 11:06:49;;;;;;;18.48;5.47;;;12.90;81.30;;;;;;6242512;23;20463;-88
2022/02/20 11:09:16;;;;;;;13.48;4.72;;;12.90;81.30;;;;;;6214504;23;20027;-93
2022/02/20 11:11:49;;;;;;;13.40;4.57;;;13.00;79.40;;;;;;6219034;23;20106;-92
2022/02/20 11:14:18;;;;;;;18.13;5.15;;;13.00;78.30;;;;;;6192732;23;20436;-91
2022/02/20 11:16:47;;;;;;;11.00;4.20;;;13.00;78.00;;;;;;6244274;23;20027;-92
2022/02/20 11:19:19;;;;;;;10.75;4.03;;;13.00;76.90;;;;;;6244479;23;20031;-85
2022/02/20 11:21:47;;;;;;;10.95;3.40;;;13.00;76.40;;;;;;6218591;23;20073;-91
2022/02/20 11:24:15;;;;;;;11.45;3.95;;;13.00;75.80;;;;;;6223500;23;20370;-89
2022/02/20 11:26:43;;;;;;;10.93;3.40;;;13.00;75.70;;;;;;6248162;23;20103;-89
2022/02/20 11:29:10;;;;;;;10.15;3.45;;;13.00;75.40;;;;;;6248043;23;20038;-91
2022/02/20 11:31:41;;;;;;;3.08;2.00;;;13.00;75.00;;;;;;6219696;23;20027;-88
2022/02/20 11:34:10;;;;;;;5.88;2.78;;;13.00;71.40;;;;;;6219428;23;20040;-86
2022/02/20 11:36:36;;;;;;;7.32;2.35;;;13.00;71.00;;;;;;6246566;23;20020;-88
2022/02/20 11:39:12;;;;;;;9.02;2.58;;;13.00;72.00;;;;;;6225618;23;20019;-87
2022/02/20 11:41:40;;;;;;;8.73;2.10;;;13.00;72.10;;;;;;6220806;23;20008;-87
2022/02/20 11:44:17;;;;;;;4.50;1.48;;;13.00;71.50;;;;;;6220266;23;20044;-90
2022/02/20 11:46:50;;;;;;;4.22;1.50;;;13.00;68.30;;;;;;6241102;23;20020;-88
2022/02/20 11:49:26;;;;;;;2.20;1.42;;;12.90;65.20;;;;;;6246900;23;20036;-89
2022/02/20 11:52:14;;;;;;;3.70;0.90;;;12.90;64.30;;;;;;6217648;23;20207;-86
2022/02/20 11:54:43;;;;;;;1.88;0.98;;;12.80;62.80;;;;;;6238914;23;20069;-84
2022/02/20 11:57:12;;;;;;;3.60;1.27;;;12.80;61.20;;;;;;6243601;23;20057;-83
2022/02/20 11:59:40;;;;;;;2.70;1.13;;;12.70;61.50;;;;;;6242688;23;20091;-86
2022/02/20 12:02:12;;;;;;;1.02;0.65;;;12.70;61.50;;;;;;6192707;23;20408;-84
2022/02/20 12:04:50;;;;;;;1.58;0.95;;;12.70;61.10;;;;;;6243153;23;20150;-83
2022/02/20 12:07:43;;;;;;;0.90;0.90;;;12.60;60.30;;;;;;6242666;23;20016;-86
2022/02/20 12:10:29;;;;;;;1.55;0.93;;;12.60;61.60;;;;;;6243320;22;20020;-85
2022/02/20 12:13:07;;;;;;;1.65;0.95;;;12.50;61.50;;;;;;6229029;23;20023;-85
2022/02/20 12:15:38;;;;;;;2.15;0.80;;;12.50;60.90;;;;;;6206489;23;20409;-84
2022/02/20 12:18:11;;;;;;;1.45;0.80;;;12.50;60.20;;;;;;6190767;23;20505;-84
2022/02/20 12:20:55;;;;;;;1.15;0.80;;;12.40;58.50;;;;;;6242831;23;20051;-84
2022/02/20 12:23:49;;;;;;;4.20;0.75;;;12.40;58.70;;;;;;6191591;23;20016;-85
2022/02/20 12:26:49;;;;;;;0.95;0.63;;;12.30;56.50;;;;;;6272390;22;20015;-85
2022/02/20 12:29:20;;;;;;;1.67;0.85;;;12.20;56.60;;;;;;6274256;22;20020;-90
2022/02/20 12:32:09;;;;;;;0.80;0.70;;;12.20;58.30;;;;;;6244966;22;20062;-88
2022/02/20 12:35:00;;;;;;;1.25;0.68;;;12.20;57.60;;;;;;6214635;23;20048;-84
2022/02/20 12:50:53;;;;;;;2.22;1.20;;;12.00;56.40;;;;;;5921544;24;20050;-86
2022/02/20 13:10:56;;;;;;;2.53;1.20;;;11.80;58.00;;;;;;5071644;27;20897;-88
2022/02/20 13:14:04;;;;;;;3.13;1.10;;;11.70;57.60;;;;;;5050454;28;20128;-91
2022/02/20 13:16:31;;;;;;;1.63;0.98;;;11.70;57.50;;;;;;5032208;28;20043;-86
2022/02/20 13:19:03;;;;;;;1.50;0.90;;;11.70;56.30;;;;;;5063729;28;20056;-88
2022/02/20 13:21:33;;;;;;;1.67;0.85;;;11.70;55.30;;;;;;5035964;28;20041;-86
2022/02/20 13:24:42;;;;;;;0.93;0.90;;;11.60;53.30;;;;;;5053003;28;20028;-86
2022/02/20 13:27:43;;;;;;;1.23;0.80;;;11.50;52.60;;;;;;5053863;28;20038;-86
2022/02/20 13:30:47;;;;;;;4.97;1.02;;;11.40;52.30;;;;;;5050710;28;20240;-87
2022/02/20 13:33:23;;;;;;;1.13;1.00;;;11.30;53.10;;;;;;5057244;28;20050;-87
2022/02/20 13:35:52;;;;;;;0.70;0.55;;;11.30;52.60;;;;;;5056053;28;20040;-88
2022/02/20 13:38:26;;;;;;;1.63;0.75;;;11.30;52.80;;;;;;5074313;28;20033;-87
2022/02/20 13:40:55;;;;;;;1.92;0.80;;;11.20;53.50;;;;;;5028847;28;20065;-87
2022/02/20 13:43:37;;;;;;;0.75;0.70;;;11.20;53.40;;;;;;5057083;28;20037;-87
2022/02/20 13:47:03;;;;;;;1.25;0.77;;;11.20;53.80;;;;;;5060823;28;20028;-90